Time;durP1;ratioP1;P1;durP2;ratioP2;P2;SDS_P1;SDS_P2;PMS_P1;PMS_P2;Temp;Humidity;BMP_temperature;BMP_pressure;BME280_temperature;BME280_humidity;BME280_pressure;Samples;Min_cycle;Max_cycle;Signal;HPM_P1;HPM_P2
2024/01/17 00:01:24;;;;;;;23.50;12.13;;;-2.00;76.40;;;;;;5012428;28;20377;-72
2024/01/17 00:03:50;;;;;;;22.03;12.17;;;-1.90;76.40;;;;;;5016374;28;20649;-72
2024/01/17 00:06:15;;;;;;;23.30;12.67;;;-1.90;76.10;;;;;;5011231;28;20638;-72
2024/01/17 00:08:41;;;;;;;28.07;13.40;;;-1.90;76.20;;;;;;5002669;28;20228;-71
2024/01/17 00:11:07;;;;;;;25.90;13.00;;;-1.70;76.20;;;;;;5008181;28;20209;-72
2024/01/17 00:13:34;;;;;;;26.90;13.00;;;-1.70;75.70;;;;;;5011575;28;20213;-71
2024/01/17 00:16:00;;;;;;;17.75;10.93;;;-1.80;75.50;;;;;;5011508;28;20197;-71
2024/01/17 00:18:25;;;;;;;26.60;12.60;;;-1.80;75.50;;;;;;5003184;28;20193;-72
2024/01/17 00:20:51;;;;;;;25.10;12.00;;;-1.70;75.80;;;;;;5008178;28;20540;-72
2024/01/17 00:23:16;;;;;;;20.30;11.60;;;-1.70;75.80;;;;;;5012246;28;20260;-72
2024/01/17 00:25:42;;;;;;;23.17;12.03;;;-1.60;75.90;;;;;;5009757;28;20189;-71
2024/01/17 00:28:08;;;;;;;23.30;11.80;;;-1.60;75.70;;;;;;5010897;28;20241;-72
2024/01/17 00:30:33;;;;;;;27.47;12.70;;;-1.60;75.70;;;;;;5009997;28;20756;-71
2024/01/17 00:32:59;;;;;;;21.30;11.90;;;-1.70;75.70;;;;;;5016682;28;20692;-71
2024/01/17 00:35:25;;;;;;;32.17;14.27;;;-1.80;75.80;;;;;;5023243;28;20189;-71
2024/01/17 00:37:51;;;;;;;24.10;13.20;;;-1.70;76.10;;;;;;5013631;28;20201;-70
2024/01/17 00:40:16;;;;;;;26.50;12.93;;;-1.80;75.90;;;;;;5005649;28;20470;-72
2024/01/17 00:42:42;;;;;;;23.47;12.33;;;-1.70;76.10;;;;;;5010182;28;20463;-72
2024/01/17 00:45:08;;;;;;;24.80;12.10;;;-1.60;76.10;;;;;;5008534;28;20681;-71
2024/01/17 00:47:34;;;;;;;24.48;12.40;;;-1.60;76.10;;;;;;5017537;28;20309;-71
2024/01/17 00:49:59;;;;;;;20.80;11.33;;;-1.50;76.10;;;;;;4995776;28;20262;-72
2024/01/17 00:52:25;;;;;;;20.63;11.80;;;-1.50;76.10;;;;;;5014502;28;20235;-71
2024/01/17 00:54:50;;;;;;;24.70;13.03;;;-1.40;76.10;;;;;;5017279;28;20182;-71
2024/01/17 00:57:16;;;;;;;28.17;14.27;;;-1.50;75.90;;;;;;5016784;28;20387;-72
2024/01/17 00:59:42;;;;;;;23.03;13.60;;;-1.50;75.90;;;;;;5007991;28;20192;-72
2024/01/17 01:02:07;;;;;;;26.67;12.93;;;-1.40;76.10;;;;;;5012655;28;20239;-72
2024/01/17 01:04:33;;;;;;;27.70;12.83;;;-1.40;75.90;;;;;;5016914;28;20177;-72
2024/01/17 01:06:59;;;;;;;30.77;12.87;;;-1.50;75.70;;;;;;5016750;28;20193;-71
2024/01/17 01:09:24;;;;;;;22.80;12.70;;;-1.50;75.70;;;;;;5014278;28;20197;-72
2024/01/17 01:11:50;;;;;;;27.90;14.37;;;-1.50;75.70;;;;;;5014603;28;20721;-71
2024/01/17 01:14:15;;;;;;;26.40;12.50;;;-1.50;75.70;;;;;;5014625;28;20194;-73
2024/01/17 01:16:42;;;;;;;25.30;13.20;;;-1.50;75.20;;;;;;5019460;28;20255;-72
2024/01/17 01:19:07;;;;;;;27.10;14.60;;;-1.50;75.20;;;;;;5012857;28;20602;-71
2024/01/17 01:21:33;;;;;;;20.13;12.20;;;-1.40;75.10;;;;;;5012114;28;20255;-71
2024/01/17 01:23:59;;;;;;;22.77;12.37;;;-1.40;74.90;;;;;;5009316;28;20201;-71
2024/01/17 01:26:24;;;;;;;25.80;12.50;;;-1.40;74.60;;;;;;5028418;28;20178;-71
2024/01/17 01:28:50;;;;;;;26.40;12.37;;;-1.40;74.20;;;;;;4995362;28;20594;-71
2024/01/17 01:31:16;;;;;;;21.60;11.60;;;-1.50;73.60;;;;;;5006095;28;20212;-71
2024/01/17 01:33:41;;;;;;;23.33;12.50;;;-1.60;73.90;;;;;;5015852;28;20192;-72
2024/01/17 01:36:07;;;;;;;18.90;10.77;;;-1.60;74.30;;;;;;5016997;28;20581;-70
2024/01/17 01:38:33;;;;;;;25.60;11.17;;;-1.70;74.60;;;;;;5010140;28;20198;-72
2024/01/17 01:40:58;;;;;;;27.20;13.10;;;-1.60;74.80;;;;;;5014671;28;20262;-71
2024/01/17 01:43:25;;;;;;;22.20;10.90;;;-1.60;74.90;;;;;;5017412;28;20173;-72
2024/01/17 01:46:14;;;;;;;22.60;12.25;;;-1.70;74.80;;;;;;5014637;28;20425;-72
2024/01/17 01:48:41;;;;;;;20.92;11.13;;;-1.70;74.90;;;;;;5015753;28;20264;-72
2024/01/17 01:51:07;;;;;;;24.33;12.05;;;-1.70;74.90;;;;;;5012614;28;20702;-73
2024/01/17 01:53:34;;;;;;;24.55;12.65;;;-1.50;75.10;;;;;;5017744;28;20190;-71
2024/01/17 01:56:00;;;;;;;26.15;12.07;;;-1.40;74.80;;;;;;5013335;28;20186;-73
2024/01/17 01:58:27;;;;;;;20.50;11.77;;;-1.40;74.50;;;;;;5008528;28;20559;-71
2024/01/17 02:00:55;;;;;;;24.33;12.15;;;-1.40;74.20;;;;;;5008993;28;20198;-72
2024/01/17 02:03:23;;;;;;;29.25;11.60;;;-1.50;74.30;;;;;;5015837;28;20206;-74
2024/01/17 02:05:48;;;;;;;22.42;12.20;;;-1.50;74.30;;;;;;5015294;28;20690;-72
2024/01/17 02:08:15;;;;;;;26.63;12.47;;;-1.60;74.60;;;;;;5015321;28;20222;-72
2024/01/17 02:10:40;;;;;;;24.50;13.52;;;-1.60;74.90;;;;;;5008748;28;20221;-73
2024/01/17 02:13:07;;;;;;;25.40;13.10;;;-1.60;75.10;;;;;;5027005;28;20269;-72
2024/01/17 02:15:33;;;;;;;26.27;11.55;;;-1.60;75.20;;;;;;5011354;28;20205;-73
2024/01/17 02:18:01;;;;;;;23.40;11.87;;;-1.40;75.20;;;;;;5010563;28;20193;-72
2024/01/17 02:20:26;;;;;;;23.98;12.43;;;-1.30;74.50;;;;;;5012857;28;20530;-72
2024/01/17 02:22:52;;;;;;;27.47;14.33;;;-1.30;74.50;;;;;;5034559;28;20178;-71
2024/01/17 02:25:19;;;;;;;27.00;14.10;;;-1.20;74.60;;;;;;5032849;28;20193;-72
2024/01/17 02:27:45;;;;;;;23.15;12.35;;;-1.20;74.80;;;;;;5010634;28;20222;-73
2024/01/17 02:30:14;;;;;;;25.83;12.47;;;-1.30;74.60;;;;;;5006419;28;20691;-72
2024/01/17 02:32:40;;;;;;;22.10;11.98;;;-1.10;74.80;;;;;;5014161;28;20273;-73
2024/01/17 02:35:06;;;;;;;22.33;11.43;;;-1.00;74.60;;;;;;5014673;28;20220;-71
2024/01/17 02:37:33;;;;;;;21.13;11.77;;;-0.90;74.50;;;;;;5018887;28;20452;-71
2024/01/17 02:39:58;;;;;;;23.70;12.35;;;-0.90;73.90;;;;;;5015990;28;20468;-72
2024/01/17 02:42:24;;;;;;;20.00;11.33;;;-0.80;74.00;;;;;;5018945;28;20210;-72
2024/01/17 02:44:50;;;;;;;23.10;12.70;;;-0.80;74.00;;;;;;5020873;28;20264;-72
2024/01/17 02:47:16;;;;;;;25.90;12.23;;;-0.70;74.00;;;;;;5006908;28;20669;-70
2024/01/17 02:49:43;;;;;;;26.60;13.60;;;-0.70;74.00;;;;;;5012629;28;20264;-72
2024/01/17 02:52:09;;;;;;;28.73;14.73;;;-0.60;73.90;;;;;;5007497;28;20666;-71
2024/01/17 02:54:34;;;;;;;26.00;14.53;;;-0.90;73.90;;;;;;5017433;28;20237;-71
2024/01/17 02:57:00;;;;;;;30.60;15.20;;;-1.10;74.60;;;;;;5011951;28;20903;-71
2024/01/17 02:59:26;;;;;;;25.00;13.43;;;-1.10;75.20;;;;;;5014421;28;20431;-72
2024/01/17 03:01:53;;;;;;;37.97;14.77;;;-1.00;75.70;;;;;;5019879;28;20213;-71
2024/01/17 03:04:19;;;;;;;27.75;13.82;;;-1.10;75.70;;;;;;5023877;28;20174;-72
2024/01/17 03:06:46;;;;;;;28.83;15.47;;;-1.10;76.10;;;;;;5027994;28;20186;-71
2024/01/17 03:09:12;;;;;;;36.25;16.35;;;-1.10;76.70;;;;;;5018950;28;20225;-71
2024/01/17 03:11:37;;;;;;;28.63;15.53;;;-1.30;77.10;;;;;;5022946;28;20273;-73
2024/01/17 03:14:03;;;;;;;31.80;16.40;;;-1.60;78.00;;;;;;5016041;28;20606;-72
2024/01/17 03:16:29;;;;;;;29.20;16.07;;;-1.70;78.90;;;;;;5013856;28;20190;-72
2024/01/17 03:18:54;;;;;;;35.90;17.77;;;-1.60;79.50;;;;;;5012740;28;20182;-71
2024/01/17 03:21:20;;;;;;;35.37;17.13;;;-1.60;79.60;;;;;;5007588;28;20221;-72
2024/01/17 03:23:46;;;;;;;37.50;16.33;;;-1.60;79.90;;;;;;5017485;28;20186;-70
2024/01/17 03:26:11;;;;;;;31.50;16.30;;;-1.70;79.90;;;;;;5013374;28;20213;-72
2024/01/17 03:28:37;;;;;;;30.30;16.07;;;-1.60;80.20;;;;;;5014856;28;20341;-70
2024/01/17 03:31:03;;;;;;;30.47;15.33;;;-1.60;80.20;;;;;;5014187;28;20615;-70
2024/01/17 03:33:28;;;;;;;32.53;16.67;;;-1.50;80.30;;;;;;5024394;28;20190;-71
2024/01/17 03:35:54;;;;;;;27.57;15.63;;;-1.50;80.20;;;;;;5022416;28;20190;-71
2024/01/17 03:38:21;;;;;;;36.37;15.90;;;-1.50;80.30;;;;;;5012452;28;20944;-71
2024/01/17 03:40:47;;;;;;;30.65;15.20;;;-1.40;80.60;;;;;;5017015;28;20296;-70
2024/01/17 03:43:13;;;;;;;28.07;15.10;;;-1.30;80.80;;;;;;5019478;28;20864;-70
2024/01/17 03:45:38;;;;;;;32.33;16.23;;;-1.20;80.60;;;;;;5012997;28;20213;-70
2024/01/17 03:48:06;;;;;;;32.13;17.20;;;-1.20;80.80;;;;;;5012710;28;20217;-72
2024/01/17 03:50:32;;;;;;;33.38;15.77;;;-1.20;80.90;;;;;;5006190;28;20214;-71
2024/01/17 03:52:59;;;;;;;31.65;17.08;;;-1.20;81.10;;;;;;5022471;28;20201;-72
2024/01/17 03:55:24;;;;;;;28.48;16.15;;;-1.20;81.20;;;;;;5018584;28;20194;-71
2024/01/17 03:57:50;;;;;;;30.33;15.50;;;-1.20;81.40;;;;;;5029727;28;20189;-71
2024/01/17 04:00:15;;;;;;;32.20;15.60;;;-1.00;81.70;;;;;;5010265;28;20210;-72
2024/01/17 04:02:41;;;;;;;29.97;13.80;;;-0.80;81.70;;;;;;5017258;28;20212;-72
2024/01/17 04:05:07;;;;;;;30.90;15.03;;;-0.80;81.50;;;;;;5016600;28;20204;-72
2024/01/17 04:07:32;;;;;;;35.13;15.53;;;-0.60;81.70;;;;;;5012308;28;20202;-72
2024/01/17 04:09:58;;;;;;;29.80;15.17;;;-0.50;81.70;;;;;;5014054;28;20260;-71
2024/01/17 04:12:24;;;;;;;25.73;14.60;;;-0.50;81.50;;;;;;5014447;28;20182;-71
2024/01/17 04:14:49;;;;;;;32.33;16.20;;;-0.40;81.70;;;;;;5015227;28;20272;-71
2024/01/17 04:17:15;;;;;;;28.70;14.90;;;-0.40;81.70;;;;;;5012388;28;20330;-71
2024/01/17 04:19:41;;;;;;;26.43;14.97;;;-0.30;81.70;;;;;;5014320;28;20194;-71
2024/01/17 04:22:07;;;;;;;30.50;15.70;;;-0.20;81.70;;;;;;5014820;28;20208;-71
2024/01/17 04:24:32;;;;;;;27.63;15.00;;;-0.20;81.80;;;;;;5016833;28;20185;-71
2024/01/17 04:26:58;;;;;;;27.27;14.93;;;-0.30;81.80;;;;;;5008821;28;20452;-71
2024/01/17 04:29:24;;;;;;;30.23;15.17;;;-0.20;82.20;;;;;;5010739;28;20210;-71
2024/01/17 04:31:49;;;;;;;30.23;15.07;;;-0.20;82.40;;;;;;5014108;28;20216;-71
2024/01/17 04:34:15;;;;;;;31.23;17.00;;;-0.20;82.70;;;;;;5010024;28;20182;-71
2024/01/17 04:36:41;;;;;;;40.27;18.57;;;-0.30;82.80;;;;;;5007614;28;21027;-71
2024/01/17 04:39:08;;;;;;;34.67;18.37;;;-0.30;82.80;;;;;;5010669;28;20893;-72
2024/01/17 04:41:34;;;;;;;33.05;16.92;;;-0.30;83.10;;;;;;5012419;28;20255;-72
2024/01/17 04:44:00;;;;;;;37.70;17.93;;;-0.20;83.30;;;;;;5012822;28;20276;-71
2024/01/17 04:46:27;;;;;;;45.83;19.58;;;-0.30;83.40;;;;;;5012979;28;20197;-71
2024/01/17 04:48:52;;;;;;;31.92;17.08;;;-0.30;83.60;;;;;;5021932;28;20251;-71
2024/01/17 04:51:21;;;;;;;37.20;18.93;;;-0.30;83.70;;;;;;5018620;28;20284;-71
2024/01/17 04:53:48;;;;;;;27.58;14.57;;;-0.20;83.80;;;;;;5020110;28;20260;-70
2024/01/17 04:56:15;;;;;;;31.65;15.48;;;-0.10;84.00;;;;;;5015962;28;20185;-73
2024/01/17 04:58:43;;;;;;;28.20;14.85;;;0.10;84.10;;;;;;5015217;28;20216;-71
2024/01/17 05:01:09;;;;;;;33.75;15.90;;;0.20;84.00;;;;;;5008084;28;20295;-73
2024/01/17 05:03:35;;;;;;;37.03;19.42;;;0.30;84.00;;;;;;5017308;28;20196;-72
2024/01/17 05:06:01;;;;;;;42.23;20.23;;;0.20;83.80;;;;;;5015641;28;20186;-71
2024/01/17 05:08:27;;;;;;;31.38;18.50;;;0.10;84.10;;;;;;5016872;28;20784;-71
2024/01/17 05:10:52;;;;;;;36.30;17.97;;;-0.10;84.00;;;;;;5016798;28;20296;-71
2024/01/17 05:13:18;;;;;;;41.90;18.27;;;0.00;84.30;;;;;;5017866;28;20198;-72
2024/01/17 05:15:45;;;;;;;43.90;18.30;;;-0.20;84.30;;;;;;5018153;28;20196;-73
2024/01/17 05:18:11;;;;;;;41.90;18.83;;;-0.20;84.40;;;;;;5018294;28;20681;-71
2024/01/17 05:20:37;;;;;;;43.07;19.70;;;-0.30;84.70;;;;;;5016145;28;20202;-73
2024/01/17 05:23:03;;;;;;;44.30;19.70;;;-0.30;84.90;;;;;;5011879;28;20662;-71
2024/01/17 05:25:28;;;;;;;37.40;19.60;;;-0.20;85.20;;;;;;5015317;28;20190;-71
2024/01/17 05:27:54;;;;;;;35.77;17.60;;;-0.20;85.50;;;;;;5009864;28;20702;-72
2024/01/17 05:30:20;;;;;;;37.40;17.97;;;-0.20;85.50;;;;;;5010590;28;20206;-71
2024/01/17 05:32:46;;;;;;;37.60;16.75;;;-0.20;85.60;;;;;;5014888;28;20208;-71
2024/01/17 05:35:14;;;;;;;33.00;16.43;;;-0.10;85.50;;;;;;5013537;28;20205;-70
2024/01/17 05:37:43;;;;;;;34.45;18.52;;;0.00;85.50;;;;;;5014045;28;20443;-72
2024/01/17 05:40:12;;;;;;;37.97;18.48;;;0.10;85.50;;;;;;5004247;28;21825;-70
2024/01/17 05:42:39;;;;;;;35.92;18.55;;;0.00;85.30;;;;;;5009971;28;20323;-69
2024/01/17 05:45:05;;;;;;;35.30;17.05;;;0.10;85.30;;;;;;5009888;28;20663;-72
2024/01/17 05:47:31;;;;;;;34.78;17.25;;;0.10;85.30;;;;;;5018201;28;20219;-70
2024/01/17 05:49:57;;;;;;;40.67;17.80;;;0.30;85.50;;;;;;5006656;28;20189;-71
2024/01/17 05:52:25;;;;;;;38.83;19.27;;;0.30;85.30;;;;;;5013341;28;20177;-73
2024/01/17 05:54:51;;;;;;;38.92;18.98;;;0.40;85.20;;;;;;5011399;28;20192;-70
2024/01/17 05:57:17;;;;;;;34.93;18.20;;;0.30;85.00;;;;;;5016740;28;20180;-71
2024/01/17 05:59:42;;;;;;;36.73;18.50;;;0.20;85.20;;;;;;5008700;28;20425;-72
2024/01/17 06:02:08;;;;;;;34.27;17.07;;;0.30;85.30;;;;;;5008937;28;20260;-71
2024/01/17 06:04:33;;;;;;;29.10;16.90;;;0.30;85.30;;;;;;5005730;28;20190;-70
2024/01/17 06:07:00;;;;;;;33.17;18.00;;;0.40;85.30;;;;;;5014254;28;20186;-73
2024/01/17 06:09:25;;;;;;;37.75;17.92;;;0.50;85.50;;;;;;5015149;28;20208;-70
2024/01/17 06:11:51;;;;;;;33.70;16.97;;;0.60;85.50;;;;;;5008962;28;20817;-69
2024/01/17 06:14:17;;;;;;;37.07;18.13;;;0.70;85.30;;;;;;5012117;28;20212;-70
2024/01/17 06:16:44;;;;;;;33.47;16.70;;;0.60;85.20;;;;;;5015975;28;20491;-71
2024/01/17 06:19:09;;;;;;;33.42;17.52;;;0.70;85.20;;;;;;5008239;28;20182;-72
2024/01/17 06:21:35;;;;;;;40.20;16.60;;;0.80;85.30;;;;;;4999262;28;20268;-71
2024/01/17 06:24:00;;;;;;;33.50;16.50;;;0.90;85.50;;;;;;5013298;28;20194;-70
2024/01/17 06:26:26;;;;;;;31.50;15.73;;;0.90;85.30;;;;;;5006885;28;20187;-73
2024/01/17 06:28:51;;;;;;;40.93;19.00;;;0.80;85.20;;;;;;5007817;28;20205;-71
2024/01/17 06:31:22;;;;;;;36.47;18.83;;;0.70;85.30;;;;;;5007943;28;20216;-72
2024/01/17 06:33:48;;;;;;;41.58;19.92;;;0.60;85.50;;;;;;5013707;28;20185;-71
2024/01/17 06:36:14;;;;;;;33.88;17.55;;;0.70;85.70;;;;;;5017795;28;20582;-71
2024/01/17 06:38:39;;;;;;;43.00;19.63;;;0.60;85.70;;;;;;5018099;28;20207;-72
2024/01/17 06:41:05;;;;;;;43.13;18.77;;;0.70;86.00;;;;;;5010640;28;20309;-71
2024/01/17 06:43:31;;;;;;;36.07;17.70;;;0.80;86.20;;;;;;5017970;28;20208;-72
2024/01/17 06:45:56;;;;;;;29.03;16.60;;;0.90;86.30;;;;;;5025411;28;20266;-72
2024/01/17 06:48:22;;;;;;;37.20;14.83;;;0.90;86.30;;;;;;5021685;28;20201;-72
2024/01/17 06:50:47;;;;;;;43.60;17.83;;;0.90;86.20;;;;;;5015036;28;20278;-69
2024/01/17 06:53:15;;;;;;;34.23;17.07;;;1.00;86.30;;;;;;5015122;28;20182;-72
2024/01/17 06:55:41;;;;;;;26.95;15.18;;;0.90;86.20;;;;;;5014340;28;20186;-72
2024/01/17 06:58:07;;;;;;;30.20;17.60;;;1.00;86.30;;;;;;5019633;28;20181;-72
2024/01/17 07:00:32;;;;;;;37.22;17.77;;;1.00;86.50;;;;;;5012036;28;20282;-71
2024/01/17 07:02:58;;;;;;;44.67;18.87;;;1.00;86.50;;;;;;5016558;28;20190;-72
2024/01/17 07:05:23;;;;;;;34.27;16.40;;;1.10;86.60;;;;;;5011467;28;20190;-70
2024/01/17 07:07:49;;;;;;;33.57;16.40;;;1.10;86.60;;;;;;5020905;28;20810;-72
2024/01/17 07:10:14;;;;;;;32.67;17.90;;;1.20;86.50;;;;;;5006357;28;20225;-73
2024/01/17 07:12:40;;;;;;;37.10;17.27;;;1.20;86.50;;;;;;5018324;28;20189;-71
2024/01/17 07:15:07;;;;;;;34.63;17.83;;;1.30;86.50;;;;;;5020380;28;20186;-70
2024/01/17 07:17:32;;;;;;;34.10;17.95;;;1.20;86.50;;;;;;5020594;28;20180;-71
2024/01/17 07:19:58;;;;;;;30.60;16.37;;;1.30;86.50;;;;;;5008659;28;20875;-71
2024/01/17 07:22:23;;;;;;;29.57;16.00;;;1.40;86.50;;;;;;5015052;28;20195;-72
2024/01/17 07:24:49;;;;;;;37.80;16.97;;;1.40;86.50;;;;;;5011571;28;20182;-70
2024/01/17 07:27:14;;;;;;;38.13;17.13;;;1.40;86.60;;;;;;5023193;28;20177;-71
2024/01/17 07:29:40;;;;;;;34.23;16.50;;;1.40;86.60;;;;;;5017584;28;20745;-72
2024/01/17 07:32:06;;;;;;;28.63;15.87;;;1.50;86.80;;;;;;5014721;28;20190;-69
2024/01/17 07:34:31;;;;;;;38.20;18.40;;;1.60;86.90;;;;;;5018972;28;20204;-72
2024/01/17 07:36:57;;;;;;;31.13;17.80;;;1.60;86.80;;;;;;5017147;28;20796;-72
2024/01/17 07:39:22;;;;;;;37.40;18.10;;;1.70;86.80;;;;;;5014611;28;20181;-71
2024/01/17 07:41:48;;;;;;;34.43;17.73;;;1.70;86.80;;;;;;5018708;28;20209;-72
2024/01/17 07:44:14;;;;;;;36.70;17.20;;;1.80;86.80;;;;;;5013091;28;20188;-70
2024/01/17 07:46:40;;;;;;;38.88;18.10;;;1.80;86.80;;;;;;5009026;28;20184;-71
2024/01/17 07:49:06;;;;;;;33.23;16.93;;;1.90;86.60;;;;;;5015621;28;20588;-71
2024/01/17 07:51:31;;;;;;;35.93;18.07;;;1.90;86.60;;;;;;5006139;28;20475;-73
2024/01/17 07:53:57;;;;;;;49.03;19.90;;;1.90;86.50;;;;;;5015617;28;20193;-73
2024/01/17 07:56:23;;;;;;;43.78;17.63;;;2.00;86.50;;;;;;5022591;28;20183;-72
2024/01/17 07:58:50;;;;;;;45.60;19.60;;;2.00;86.30;;;;;;5016012;28;20186;-71
2024/01/17 08:01:16;;;;;;;39.95;18.92;;;1.90;86.30;;;;;;5009744;28;20457;-71
2024/01/17 08:03:41;;;;;;;32.92;16.25;;;1.90;86.20;;;;;;5016642;28;20197;-71
2024/01/17 08:06:07;;;;;;;36.83;18.20;;;1.90;86.20;;;;;;5017667;28;20182;-71
2024/01/17 08:08:33;;;;;;;31.10;16.90;;;2.00;86.30;;;;;;5013138;28;20218;-70
2024/01/17 08:10:58;;;;;;;30.60;16.13;;;2.00;86.30;;;;;;5009062;28;20297;-72
2024/01/17 08:13:24;;;;;;;32.77;15.90;;;2.10;86.30;;;;;;5020641;28;20235;-73
2024/01/17 08:15:50;;;;;;;38.50;17.73;;;2.20;86.30;;;;;;5018723;28;20197;-72
2024/01/17 08:18:16;;;;;;;36.63;18.27;;;2.20;86.30;;;;;;5019515;28;20189;-72
2024/01/17 08:20:43;;;;;;;32.63;16.80;;;2.30;86.00;;;;;;5005769;28;21011;-72
2024/01/17 08:23:09;;;;;;;45.60;20.65;;;2.40;86.00;;;;;;5011259;28;20953;-71
2024/01/17 08:25:34;;;;;;;36.97;17.73;;;2.30;85.90;;;;;;5010405;28;20196;-72
2024/01/17 08:28:00;;;;;;;28.00;17.20;;;2.30;85.90;;;;;;5019353;28;20209;-71
2024/01/17 08:30:29;;;;;;;39.93;17.77;;;2.30;85.90;;;;;;5008783;28;20204;-72
2024/01/17 08:32:54;;;;;;;41.03;19.35;;;2.30;86.00;;;;;;5014628;28;20194;-72
2024/01/17 08:35:20;;;;;;;34.73;17.60;;;2.20;86.20;;;;;;5011963;28;20276;-71
2024/01/17 08:37:46;;;;;;;37.83;18.17;;;2.30;86.20;;;;;;5012150;28;20212;-71
2024/01/17 08:40:12;;;;;;;41.93;18.80;;;2.30;86.30;;;;;;5011947;28;20662;-72
2024/01/17 08:42:38;;;;;;;35.00;17.97;;;2.40;86.30;;;;;;5019380;28;20689;-70
2024/01/17 08:45:06;;;;;;;40.63;19.37;;;2.40;86.30;;;;;;5015845;28;20460;-72
2024/01/17 08:47:31;;;;;;;36.15;18.88;;;2.40;86.30;;;;;;5017783;28;20459;-70
2024/01/17 08:50:00;;;;;;;41.47;19.20;;;2.50;86.50;;;;;;5012742;28;20986;-73
2024/01/17 08:52:26;;;;;;;36.22;17.83;;;2.50;86.50;;;;;;5014097;28;20440;-73
2024/01/17 08:54:52;;;;;;;38.08;18.23;;;2.60;86.60;;;;;;5013522;28;20186;-73
2024/01/17 08:57:18;;;;;;;36.65;18.00;;;2.60;86.60;;;;;;5015118;28;20713;-73
2024/01/17 08:59:43;;;;;;;34.27;16.70;;;2.60;86.60;;;;;;5018196;28;20212;-71
2024/01/17 09:02:09;;;;;;;32.83;16.23;;;2.60;86.60;;;;;;5004814;28;20194;-73
2024/01/17 09:04:34;;;;;;;43.20;18.33;;;2.70;86.80;;;;;;5007173;28;20272;-71
2024/01/17 09:07:01;;;;;;;35.87;17.53;;;2.70;86.80;;;;;;5011992;28;20177;-72
2024/01/17 09:09:30;;;;;;;43.58;20.00;;;2.70;86.80;;;;;;5015188;28;20224;-72
2024/01/17 09:11:57;;;;;;;38.88;18.83;;;2.70;86.80;;;;;;5006112;28;20213;-72
2024/01/17 09:14:24;;;;;;;45.97;20.20;;;2.80;86.90;;;;;;5013278;28;20673;-72
2024/01/17 09:16:51;;;;;;;41.45;19.17;;;2.80;86.90;;;;;;5009405;28;20194;-71
2024/01/17 09:19:17;;;;;;;39.28;19.50;;;2.90;87.00;;;;;;5011272;28;20182;-72
2024/01/17 09:21:43;;;;;;;44.45;20.75;;;2.90;87.00;;;;;;5004095;28;20771;-72
2024/01/17 09:24:08;;;;;;;40.03;18.73;;;2.90;86.90;;;;;;5005343;28;20178;-70
2024/01/17 09:26:34;;;;;;;40.67;18.97;;;3.00;86.90;;;;;;5007003;28;20185;-71
2024/01/17 09:28:59;;;;;;;52.30;21.00;;;3.00;86.90;;;;;;5009827;28;20301;-70
2024/01/17 09:31:25;;;;;;;44.70;21.00;;;3.00;86.90;;;;;;5001749;28;20210;-71
2024/01/17 09:33:50;;;;;;;40.93;18.03;;;2.90;87.00;;;;;;5016334;28;20684;-71
2024/01/17 09:36:16;;;;;;;41.10;20.60;;;3.00;87.00;;;;;;5006252;28;20189;-72
2024/01/17 09:38:43;;;;;;;41.73;19.20;;;3.10;87.10;;;;;;5014336;28;20280;-71
2024/01/17 09:41:09;;;;;;;43.92;20.40;;;3.00;87.10;;;;;;5007283;28;20206;-73
2024/01/17 09:43:35;;;;;;;39.77;19.50;;;3.00;87.30;;;;;;5018213;28;20241;-70
2024/01/17 09:46:02;;;;;;;35.23;17.83;;;3.10;87.30;;;;;;5009440;28;20421;-71
2024/01/17 09:48:29;;;;;;;43.47;19.88;;;3.00;87.30;;;;;;5007487;28;20536;-72
2024/01/17 09:50:57;;;;;;;42.78;20.95;;;3.00;87.40;;;;;;5013157;28;20260;-71
2024/01/17 09:53:28;;;;;;;45.45;21.80;;;3.00;87.40;;;;;;5002167;28;20190;-73
2024/01/17 09:56:01;;;;;;;34.85;19.27;;;2.90;87.40;;;;;;5010415;28;20614;-71
2024/01/17 09:58:30;;;;;;;38.28;18.23;;;3.00;87.80;;;;;;5004744;28;20191;-73
2024/01/17 10:00:57;;;;;;;40.70;19.85;;;3.20;87.80;;;;;;5011674;28;20240;-73
2024/01/17 10:03:24;;;;;;;51.00;23.15;;;3.30;87.80;;;;;;5004121;28;20690;-72
2024/01/17 10:05:51;;;;;;;42.97;18.90;;;3.30;87.80;;;;;;5015744;28;20185;-72
2024/01/17 10:08:18;;;;;;;37.20;18.27;;;3.40;87.80;;;;;;5013949;28;20213;-72
2024/01/17 10:10:44;;;;;;;35.60;17.67;;;3.50;87.70;;;;;;5011267;28;20523;-71
2024/01/17 10:13:11;;;;;;;33.70;16.63;;;3.60;87.60;;;;;;5010579;28;20182;-71
2024/01/17 10:15:49;;;;;;;36.53;19.70;;;3.60;87.60;;;;;;5023275;28;20181;-71
2024/01/17 10:18:15;;;;;;;42.22;18.70;;;3.70;87.40;;;;;;5021559;28;20471;-72
2024/01/17 10:20:42;;;;;;;40.33;19.03;;;3.80;87.40;;;;;;5009084;28;20237;-72
2024/01/17 10:23:08;;;;;;;46.33;22.67;;;3.80;87.30;;;;;;5019270;28;20182;-71
2024/01/17 10:25:41;;;;;;;41.00;20.10;;;3.80;87.10;;;;;;5021063;28;20508;-72
2024/01/17 10:28:07;;;;;;;38.43;20.10;;;3.70;87.00;;;;;;5013909;28;20468;-72
2024/01/17 10:30:34;;;;;;;45.00;22.07;;;3.70;86.90;;;;;;5008179;28;20480;-72
2024/01/17 10:33:02;;;;;;;38.53;20.07;;;3.70;87.00;;;;;;5022292;28;20424;-72
2024/01/17 10:35:28;;;;;;;42.27;20.30;;;3.80;87.00;;;;;;5022714;28;20436;-71
2024/01/17 10:37:54;;;;;;;37.53;19.20;;;3.70;87.00;;;;;;5018615;28;20984;-72
2024/01/17 10:40:20;;;;;;;45.80;19.33;;;3.80;87.00;;;;;;5021145;28;20472;-72
2024/01/17 10:42:46;;;;;;;43.00;21.33;;;3.90;87.00;;;;;;5022087;28;20186;-72
2024/01/17 10:45:22;;;;;;;43.53;22.13;;;3.90;87.00;;;;;;5023634;28;20189;-72
2024/01/17 10:47:48;;;;;;;44.17;20.70;;;3.90;86.90;;;;;;5029873;28;20247;-71
2024/01/17 10:50:17;;;;;;;36.50;19.57;;;3.90;86.90;;;;;;5014383;28;20567;-72
2024/01/17 10:52:46;;;;;;;38.37;19.00;;;3.90;87.00;;;;;;5023517;28;20416;-73
2024/01/17 10:55:17;;;;;;;52.13;21.90;;;4.00;86.80;;;;;;5010420;28;20429;-72
2024/01/17 10:57:49;;;;;;;45.00;21.03;;;4.00;86.90;;;;;;5022155;28;20435;-73
2024/01/17 11:00:17;;;;;;;45.70;20.13;;;3.90;86.80;;;;;;5011372;28;20507;-73
2024/01/17 11:02:44;;;;;;;45.93;21.90;;;3.90;86.80;;;;;;5017725;28;20447;-71
2024/01/17 11:05:11;;;;;;;42.00;20.20;;;3.90;86.90;;;;;;5011213;28;20417;-71
2024/01/17 11:07:37;;;;;;;33.20;16.83;;;3.90;86.90;;;;;;5023692;28;20447;-72
2024/01/17 11:10:04;;;;;;;32.70;16.17;;;4.00;87.00;;;;;;5013602;28;20201;-70
2024/01/17 11:12:36;;;;;;;30.42;15.63;;;4.00;87.00;;;;;;5009125;28;20449;-71
2024/01/17 11:15:06;;;;;;;31.38;16.10;;;4.00;87.00;;;;;;5012930;28;20285;-71
2024/01/17 11:17:39;;;;;;;25.47;13.53;;;4.00;86.90;;;;;;5008925;28;20525;-71
2024/01/17 11:20:09;;;;;;;24.23;13.80;;;4.10;87.00;;;;;;5011914;28;20476;-72
2024/01/17 11:22:36;;;;;;;34.35;17.55;;;4.20;87.10;;;;;;5019497;28;20444;-73
2024/01/17 11:25:19;;;;;;;28.30;15.45;;;4.20;87.10;;;;;;5023555;28;20194;-71
2024/01/17 11:28:04;;;;;;;29.90;13.63;;;4.10;87.00;;;;;;5016927;28;20209;-71
2024/01/17 11:30:41;;;;;;;30.77;14.43;;;4.10;87.30;;;;;;5006843;28;20488;-70
2024/01/17 11:33:10;;;;;;;30.00;14.30;;;4.30;87.40;;;;;;5005177;28;20181;-70
2024/01/17 11:35:53;;;;;;;28.77;14.10;;;4.30;87.40;;;;;;5011054;28;20428;-71
2024/01/17 11:38:24;;;;;;;25.63;15.03;;;4.30;87.40;;;;;;5015201;28;20200;-70
2024/01/17 11:41:01;;;;;;;34.03;13.90;;;4.40;87.40;;;;;;5004008;28;20527;-72
2024/01/17 11:43:31;;;;;;;24.53;13.50;;;4.40;87.40;;;;;;5018351;28;20416;-71
2024/01/17 11:45:59;;;;;;;32.43;15.23;;;4.40;87.60;;;;;;5013865;28;20498;-71
2024/01/17 11:48:29;;;;;;;33.17;16.53;;;4.40;87.40;;;;;;5013585;28;20464;-71
2024/01/17 11:51:01;;;;;;;29.55;14.63;;;4.40;87.40;;;;;;5001512;28;21039;-71
2024/01/17 11:53:28;;;;;;;27.80;11.47;;;4.30;87.60;;;;;;5016399;28;20189;-71
2024/01/17 11:55:59;;;;;;;24.10;11.80;;;4.40;87.80;;;;;;5011806;28;20453;-71
2024/01/17 11:58:42;;;;;;;21.67;12.10;;;4.70;88.00;;;;;;5027590;28;20428;-71
2024/01/17 12:01:24;;;;;;;22.30;10.80;;;4.80;88.00;;;;;;5005069;28;20453;-70
2024/01/17 12:03:50;;;;;;;20.70;10.40;;;4.90;87.80;;;;;;5012296;28;20516;-70
2024/01/17 12:06:17;;;;;;;15.00;9.70;;;5.00;87.80;;;;;;5008398;28;20429;-72
2024/01/17 12:08:43;;;;;;;16.27;9.17;;;5.10;87.60;;;;;;5017163;28;20469;-70
2024/01/17 12:11:09;;;;;;;23.83;9.40;;;5.20;87.60;;;;;;5004956;28;20993;-70
2024/01/17 12:13:36;;;;;;;16.50;8.03;;;5.20;87.40;;;;;;5016587;28;20429;-71
2024/01/17 12:16:03;;;;;;;13.83;7.40;;;5.30;87.30;;;;;;5016081;28;20201;-72
2024/01/17 12:18:28;;;;;;;14.43;8.27;;;5.40;87.30;;;;;;5018616;28;20491;-72
2024/01/17 12:20:55;;;;;;;16.33;8.33;;;5.50;87.30;;;;;;5007060;28;20457;-72
2024/01/17 12:23:22;;;;;;;18.27;8.13;;;5.60;87.10;;;;;;5016499;28;20425;-72
2024/01/17 12:25:49;;;;;;;13.27;7.50;;;5.70;87.30;;;;;;5016459;28;20416;-72
2024/01/17 12:28:20;;;;;;;15.47;7.80;;;5.70;87.10;;;;;;5022249;28;20460;-72
2024/01/17 12:31:04;;;;;;;15.93;8.80;;;5.70;87.00;;;;;;5005708;28;20464;-72